Roberts Field
KRDM : now visible

Airfield :











YOU CAN JOIN US ON...

 
LOGIN :

Register | Disclaimer

   EN    FR    IT 

 









Legend :    VFR   Marginal VFR   IFR   Intensive IFR   Very Intensive IFR
Visi :
Ceiling :
>= 8 km
>= 3000ft
5 to 8 km
1000 to 3000 ft
1500m to 5 km
500 to 1000 ft
800 to 1500m
200 to 500 ft
< 800m
< 200 ft
Symbols :   Thunderstorms  Fog  Heavy snow  Heavy precipitations  Wind > 20 kt






- Airport Elevation : 3080 ft
- IATA code : RDM


KRDM - Roberts Field

CURRENT METAR :
  • 131456Z AUTO 08003KT 10SM CLR 22/02 A3007 RMK AO2 SLP146 T02170022 50002

EXPIRED METARs :
  • 131356Z AUTO 13003KT 9SM CLR 17/01 A3007 RMK AO2 SLP150 T01670011
  • 131256Z AUTO 13003KT 8SM CLR 11/M01 A3007 RMK AO2 SLP154 T01061006
  • 131156Z AUTO 00000KT 8SM CLR 12/M01 A3006 RMK AO2 SLP151 T01171006 10244 20111 53004
  • 131056Z AUTO 16006KT 9SM CLR 14/01 A3005 RMK AO2 SLP145 T01390011

TAF KRDM
Valid from the 13 at 12:00 until the 14 at 12:00 UTC


131120Z 1312/1412 VRB05KT P6SM SKC
FM132100 31012G22KT P6SM SKC
FM140500 VRB05KT P6SM SKC
KZSE FIR / North America



MET'MAP, your aeronautical weather chart ! - Copyright ORBIFLY December 2007 - Disclaimer

ORBIFLY MET'MAP TEAM :

Programming & Development : Alexandra Zaïnal
Original concept : Baudouin d'Aumeries
Technical & hardware support : Manuel Goepfert
Assistance : Marc-Olivier Méhu




SOURCES & CREDITS :

   NOAA       Earth
Advisory